• Join FlightAware (Why Join?)
  • Login
  • US Flag 
05:13AM EDT


 

Airport Tracker/Info


-or-


 

Live Flight TrackerFlight Track Log ✈ UAL4588 ✈ 08-Apr-2013 ✈ KORD - KGRR

Flight Track Log - Related Links

Times and Time Zones

All times are in EDT time to prevent confusion due to time zone crossing. See the UAL4588 flight status page for this flight to view local times or setup timezone preferences in your user account.

Time Position Orientation Groundspeed Altitude Reporting Facility
EDT Latitude Longitude Course Direction KTS MPH feet Rate Location/Type
07:08PM 42.0333 -87.9333 66° East 199 229 2,800  Level Chicago TRACON
07:09PM 42.0833 -87.8667 45° Northeast 252 290 5,000 1,680 Climbing Chicago TRACON
07:10PM 42.0833 -87.5762 90° East  Level FlightAware Approximate
07:10PM 42.1297 -87.8172 38° Northeast 267 307 6,500  Level Chicago Center
07:11PM 42.1270 -87.4686 59° Northeast  Level FlightAware Approximate
07:11PM 42.1703 -87.6900 67° East 319 367 9,000  Level Chicago Center
07:12PM 42.1693 -87.3588 66° East  Level FlightAware Approximate
07:12PM 42.1922 -87.5725 76° East 326 375 11,200  Level Chicago Center
07:13PM 42.2071 -87.2456 66° East  Level FlightAware Approximate
07:13PM 42.2136 -87.4500 77° East 334 384 12,900  Level Chicago Center
07:14PM 42.2364 -87.3167 77° East 361 415 14,200 1,140 Climbing Chicago Center
07:15PM 42.2603 -87.1758 77° East 384 442 15,300 1,020 Climbing Chicago Center
07:16PM 42.2822 -87.0244 79° East 406 467 16,400 840 Climbing Chicago Center
07:17PM 42.2872 -86.8644 88° East 423 487 17,100 300 Climbing Chicago Center
07:18PM 42.2956 -86.6658 87° East 451 519 17,100  Level Chicago Center
07:19PM 42.3019 -86.4911 87° East 465 535 17,100  Level Chicago Center
07:20PM 42.3072 -86.3197 88° East 463 533 17,100 -120 Level Chicago Center
07:21PM 42.3142 -86.1478 87° East 462 532 16,900 -540 Descending Chicago Center
07:22PM 42.3197 -85.9825 87° East 448 516 16,000 -1,140 Descending Chicago Center
07:23PM 42.3283 -85.7894 86° East 435 501 14,600 -1,380 Descending Chicago Center
07:24PM 42.3783 -85.6531 64° Northeast 417 480 13,200 -1,500 Descending Chicago Center
07:25PM 42.4792 -85.6081 18° North 385 443 11,600 -1,440 Descending Chicago Center
07:26PM 42.5800 -85.5714 15° North 379 436 10,300 -1,020 Descending Chicago Center
07:27PM 42.6581 -85.5156 28° Northeast 329 379 9,600 -1,200 Descending Chicago Center
07:28PM 42.7372 -85.4394 35° Northeast 297 342 7,900 -1,320 Descending Chicago Center
07:29PM 42.7953 -85.3814 36° Northeast 271 312 6,900 -1,320 Descending Chicago Center
07:30PM 42.8006 -85.2833 86° East 269 310 5,300 -1,320 Descending Chicago Center
07:31PM 42.8183 -85.2075 72° East 232 267 4,200 -720 Descending Chicago Center
07:32PM 42.8569 -85.2275 339° North 164 189 3,900 -660 Descending Chicago Center
07:33PM 42.8839 -85.2633 316° Northwest 156 180 2,900 -540 Descending Chicago Center
07:34PM 42.8886 -85.3208 276° West 154 177 2,900 -300 Level Chicago Center
07:35PM 42.8947 -85.3911 277° West 155 178 2,400 -540 Descending Chicago Center